This is the latest recevied weather packets stored in our database for station/object IW2OBX-10. If no packets are shown the sender has not sent any weather packets the latest 10 day(s).
| Time | Temp. | Humidity | Pressure | Rain* | Wind** | Luminosity | Snow |
|---|---|---|---|---|---|---|---|
| 1777656290 | 18.89° C | 39% | 1024.3 hPa | - | - | - | - |
| 1777655390 | 19.44° C | 38% | 1024.1 hPa | - | - | - | - |
| 1777654489 | 20° C | 36% | 1024.2 hPa | - | - | - | - |
| 1777653588 | 20° C | 35% | 1024.2 hPa | - | - | - | - |
| 1777652687 | 21.11° C | 33% | 1024.3 hPa | - | - | - | - |
| 1777651786 | 22.22° C | 31% | 1024.3 hPa | - | - | - | - |
| 1777650886 | 22.22° C | 29% | 1024.4 hPa | - | - | - | - |
| 1777649985 | 21.67° C | 29% | 1024.5 hPa | - | - | - | - |
| 1777649084 | 21.67° C | 29% | 1024.6 hPa | - | - | - | - |
| 1777648183 | 21.11° C | 29% | 1024.9 hPa | - | - | - | - |
| 1777647282 | 21.11° C | 30% | 1025 hPa | - | - | - | - |
| 1777646382 | 21.67° C | 28% | 1025.1 hPa | - | - | - | - |
| 1777645481 | 21.67° C | 29% | 1025.3 hPa | - | - | - | - |
| 1777644580 | 21.11° C | 29% | 1025.4 hPa | - | - | - | - |
| 1777643679 | 21.67° C | 28% | 1025.6 hPa | - | - | - | - |
| 1777642777 | 21.11° C | 28% | 1025.8 hPa | - | - | - | - |
| 1777641877 | 21.11° C | 26% | 1025.8 hPa | - | - | - | - |
| 1777640976 | 21.11° C | 27% | 1025.9 hPa | - | - | - | - |
| 1777640075 | 21.11° C | 27% | 1026.1 hPa | - | - | - | - |
| 1777639174 | 20.56° C | 27% | 1026.4 hPa | - | - | - | - |
| 1777638273 | 20° C | 27% | 1026.5 hPa | - | - | - | - |
| 1777637373 | 20° C | 27% | 1026.7 hPa | - | - | - | - |
| 1777636472 | 21.67° C | 25% | 1026.6 hPa | - | - | - | - |
| 1777635571 | 20° C | 27% | 1026.8 hPa | - | - | - | - |
| 1777634670 | 19.44° C | 27% | 1027.1 hPa | - | - | - | - |
* Rain since midnight (hover to see other rain measurements)
** Current wind speed in m/s (hover to see current wind gust speed)